Time;durP1;ratioP1;P1;durP2;ratioP2;P2;SDS_P1;SDS_P2;PMS_P1;PMS_P2;Temp;Humidity;BMP_temperature;BMP_pressure;BME280_temperature;BME280_humidity;BME280_pressure;Samples;Min_cycle;Max_cycle;Signal;HPM_P1;HPM_P2
2022/08/19 00:01:24;;;;;;;5.80;4.80;;;;;;;24.77;57.12;94423.66;5074169;28;20191;-83
2022/08/19 00:03:51;;;;;;;6.55;4.65;;;;;;;24.74;57.05;94416.25;5093858;28;20310;-84
2022/08/19 00:06:18;;;;;;;6.50;4.85;;;;;;;24.74;57.21;94422.31;5094337;28;20197;-84
2022/08/19 00:08:45;;;;;;;7.57;4.75;;;;;;;24.71;57.42;94412.31;5097938;28;20201;-81
2022/08/19 00:11:12;;;;;;;6.38;4.65;;;;;;;24.56;57.62;94398.91;5110900;28;20227;-85
2022/08/19 00:13:40;;;;;;;6.07;5.03;;;;;;;24.65;57.96;94426.28;5110101;28;20189;-81
2022/08/19 00:16:08;;;;;;;5.35;4.85;;;;;;;24.64;58.11;94422.09;5107625;28;20189;-83
2022/08/19 00:18:35;;;;;;;7.10;5.40;;;;;;;24.61;58.24;94427.81;5101204;28;20570;-83
2022/08/19 00:21:06;;;;;;;5.00;4.13;;;;;;;24.48;58.62;94426.25;5099301;28;20238;-82
2022/08/19 00:23:34;;;;;;;7.00;4.53;;;;;;;24.56;58.64;94443.38;5092647;28;20205;-82
2022/08/19 00:26:01;;;;;;;6.38;4.90;;;;;;;24.55;58.95;94435.75;5093313;28;20178;-84
2022/08/19 00:28:28;;;;;;;7.10;4.35;;;;;;;24.55;58.85;94439.16;5093239;28;20186;-84
2022/08/19 00:30:55;;;;;;;5.38;4.88;;;;;;;24.55;58.66;94446.22;5092967;28;20583;-84
2022/08/19 00:33:23;;;;;;;5.07;4.57;;;;;;;24.52;58.38;94437.00;5092822;28;20194;-84
2022/08/19 00:35:50;;;;;;;5.57;4.38;;;;;;;24.52;57.98;94431.78;5093098;28;20182;-83
2022/08/19 00:38:17;;;;;;;7.30;4.45;;;;;;;24.51;57.64;94433.59;5092610;28;20198;-84
2022/08/19 00:40:46;;;;;;;4.90;4.13;;;;;;;24.52;57.49;94437.00;5092623;28;20197;-83
2022/08/19 00:43:14;;;;;;;5.80;4.50;;;;;;;24.50;57.47;94429.41;5092851;28;20186;-82
2022/08/19 00:45:43;;;;;;;5.82;4.75;;;;;;;24.50;57.28;94426.00;5092372;28;20649;-83
2022/08/19 00:48:10;;;;;;;4.72;4.32;;;;;;;24.48;57.57;94425.41;5092840;28;20182;-83
2022/08/19 00:50:42;;;;;;;5.05;4.63;;;;;;;24.46;57.50;94428.28;5092292;28;20189;-83
2022/08/19 00:53:10;;;;;;;5.00;4.60;;;;;;;24.40;57.52;94423.97;5092614;28;20198;-84
2022/08/19 00:55:40;;;;;;;5.40;4.18;;;;;;;24.41;57.27;94424.78;5092728;28;20253;-82
2022/08/19 00:58:10;;;;;;;5.03;4.25;;;;;;;24.30;57.15;94408.03;5092493;28;20199;-81
2022/08/19 01:00:38;;;;;;;4.90;4.50;;;;;;;24.39;57.05;94417.13;5092176;28;20632;-81
2022/08/19 01:03:06;;;;;;;5.57;4.10;;;;;;;24.34;56.91;94419.63;5092590;28;20197;-84
2022/08/19 01:05:33;;;;;;;5.13;4.38;;;;;;;24.35;57.31;94423.03;5092137;28;20225;-85
2022/08/19 01:08:05;;;;;;;4.47;4.07;;;;;;;24.34;57.38;94417.00;5092555;28;20193;-83
2022/08/19 01:10:36;;;;;;;5.78;4.18;;;;;;;24.30;57.81;94421.09;5091350;28;20197;-84
2022/08/19 01:13:04;;;;;;;4.82;4.43;;;;;;;24.29;58.37;94425.53;5092542;28;20186;-83
2022/08/19 01:15:34;;;;;;;4.88;4.38;;;;;;;24.24;58.65;94428.03;5091809;28;20193;-81
2022/08/19 01:18:06;;;;;;;4.68;4.28;;;;;;;24.10;58.44;94405.81;5092247;28;20207;-83
2022/08/19 01:20:34;;;;;;;5.80;4.57;;;;;;;24.06;58.60;94401.25;5092826;28;20217;-82
2022/08/19 01:23:03;;;;;;;8.55;4.97;;;;;;;24.21;58.38;94422.47;5092623;28;20391;-84
2022/08/19 01:25:34;;;;;;;5.22;4.75;;;;;;;24.18;58.24;94415.91;5092778;28;20182;-83
2022/08/19 01:28:01;;;;;;;7.95;4.90;;;;;;;24.15;58.09;94416.34;5092302;28;20186;-83
2022/08/19 01:30:31;;;;;;;5.85;4.72;;;;;;;23.90;58.72;94381.84;5092438;28;20567;-84
2022/08/19 01:33:00;;;;;;;4.30;3.95;;;;;;;24.06;59.02;94422.97;5092033;28;20200;-82
2022/08/19 01:35:30;;;;;;;6.07;4.15;;;;;;;24.02;58.78;94414.78;5092178;28;20185;-83
2022/08/19 01:38:00;;;;;;;8.85;4.68;;;;;;;24.04;59.18;94424.97;5092123;28;20205;-83
2022/08/19 01:40:30;;;;;;;5.03;3.75;;;;;;;24.00;59.27;94423.84;5091070;28;20217;-84
2022/08/19 01:42:58;;;;;;;6.78;4.65;;;;;;;23.89;59.40;94417.63;5091613;28;20629;-83
2022/08/19 01:45:27;;;;;;;6.70;5.40;;;;;;;23.93;59.70;94425.81;5091056;28;20207;-83
2022/08/19 01:47:54;;;;;;;5.15;4.75;;;;;;;23.93;59.85;94426.59;5091406;28;20189;-82
2022/08/19 01:50:22;;;;;;;5.55;5.05;;;;;;;23.91;60.14;94425.22;5091569;28;20193;-82
2022/08/19 01:52:49;;;;;;;4.85;4.45;;;;;;;23.86;60.37;94420.66;5091293;28;20624;-80
2022/08/19 01:55:19;;;;;;;5.40;4.90;;;;;;;23.78;60.52;94415.78;5091298;28;20641;-83
2022/08/19 01:57:51;;;;;;;5.50;4.60;;;;;;;23.82;60.97;94426.56;5090947;28;20585;-83
2022/08/19 02:00:20;;;;;;;5.45;4.63;;;;;;;23.77;61.31;94428.03;5091026;28;20213;-84
2022/08/19 02:02:47;;;;;;;7.50;5.25;;;;;;;23.74;61.36;94431.09;5090814;28;20649;-83
2022/08/19 02:05:18;;;;;;;5.47;4.97;;;;;;;23.72;61.35;94429.75;5091026;28;20290;-82
2022/08/19 02:07:45;;;;;;;5.60;5.10;;;;;;;23.71;61.62;94428.16;5090999;28;20193;-83
2022/08/19 02:10:14;;;;;;;5.70;5.03;;;;;;;23.67;61.96;94430.44;5091158;28;20188;-83
2022/08/19 02:12:42;;;;;;;5.05;4.57;;;;;;;23.53;62.32;94406.31;5090473;28;20188;-81
2022/08/19 02:15:11;;;;;;;6.18;4.80;;;;;;;23.63;62.17;94421.44;5090894;28;20192;-82
2022/08/19 02:17:38;;;;;;;5.32;4.82;;;;;;;23.58;62.64;94416.09;5090745;28;20200;-83
2022/08/19 02:20:06;;;;;;;9.40;5.05;;;;;;;23.50;62.62;94413.81;5090668;28;20225;-83
2022/08/19 02:22:35;;;;;;;12.32;5.28;;;;;;;23.51;63.24;94428.44;5089301;28;20186;-83
2022/08/19 02:25:04;;;;;;;6.07;5.45;;;;;;;23.50;63.11;94426.84;5090538;28;20185;-82
2022/08/19 02:27:33;;;;;;;8.00;5.47;;;;;;;23.35;63.52;94410.81;5090478;28;20186;-83
2022/08/19 02:30:00;;;;;;;7.80;6.18;;;;;;;23.47;63.81;94422.06;5090926;28;20349;-83
2022/08/19 02:32:30;;;;;;;6.65;5.20;;;;;;;23.41;63.78;94426.38;5090175;28;20284;-83
2022/08/19 02:34:57;;;;;;;7.45;5.88;;;;;;;23.39;63.98;94417.16;5090493;28;20182;-83
2022/08/19 02:40:09;;;;;;;10.27;6.25;;;;;;;23.28;64.40;94422.16;5090270;28;20288;-83
2022/08/19 02:42:36;;;;;;;10.55;5.90;;;;;;;23.30;64.59;94427.13;5090147;28;20556;-79
2022/08/19 02:45:05;;;;;;;8.75;6.50;;;;;;;23.17;64.67;94412.47;5090342;28;20189;-83
2022/08/19 02:47:33;;;;;;;7.57;6.25;;;;;;;23.22;64.69;94420.41;5090671;28;20612;-83
2022/08/19 02:50:02;;;;;;;8.63;5.45;;;;;;;23.23;64.83;94426.44;5091347;28;20208;-81
2022/08/19 02:52:29;;;;;;;9.50;6.72;;;;;;;23.13;65.16;94421.75;5090187;28;20182;-83
2022/08/19 02:54:57;;;;;;;9.93;5.93;;;;;;;23.11;65.31;94429.00;5090819;28;20188;-83
2022/08/19 02:57:24;;;;;;;9.10;6.07;;;;;;;23.09;65.23;94433.63;5090136;28;20287;-82
2022/08/19 02:59:51;;;;;;;10.40;5.93;;;;;;;23.02;65.59;94432.94;5090481;28;20217;-83
2022/08/19 03:02:17;;;;;;;9.23;5.53;;;;;;;22.98;65.80;94435.19;5090077;28;20185;-83
2022/08/19 03:04:46;;;;;;;10.10;5.50;;;;;;;22.93;65.74;94440.28;5089712;28;20619;-81
2022/08/19 03:07:15;;;;;;;11.25;5.85;;;;;;;22.90;66.00;94432.91;5090095;28;20194;-84
2022/08/19 03:09:42;;;;;;;14.13;5.57;;;;;;;22.89;65.93;94435.69;5089755;28;20213;-83
2022/08/19 03:12:09;;;;;;;8.05;5.57;;;;;;;22.82;66.27;94430.56;5089902;28;20630;-83
2022/08/19 03:14:37;;;;;;;8.07;5.75;;;;;;;22.57;66.34;94401.19;5090330;28;20534;-83
2022/08/19 03:17:09;;;;;;;10.10;5.57;;;;;;;22.74;66.50;94426.44;5090232;28;20630;-82
2022/08/19 03:19:36;;;;;;;7.22;5.43;;;;;;;22.74;66.65;94430.84;5090496;28;20217;-82
2022/08/19 03:22:04;;;;;;;10.18;5.82;;;;;;;22.54;67.03;94415.47;5090637;28;20185;-83
2022/08/19 03:24:31;;;;;;;13.18;5.93;;;;;;;22.59;67.21;94425.22;5089822;28;20194;-82
2022/08/19 03:26:59;;;;;;;7.78;6.20;;;;;;;22.57;67.59;94429.84;5089697;28;20197;-79
2022/08/19 03:29:26;;;;;;;6.47;5.65;;;;;;;22.38;67.41;94401.19;5089393;28;20668;-80
2022/08/19 03:31:54;;;;;;;9.82;6.07;;;;;;;22.57;67.31;94433.25;5089721;28;20203;-82
2022/08/19 03:34:26;;;;;;;7.53;5.90;;;;;;;22.38;67.52;94409.03;5091444;28;20198;-81
2022/08/19 03:36:53;;;;;;;7.82;6.10;;;;;;;22.26;67.23;94397.72;5093719;28;20193;-80
2022/08/19 03:39:22;;;;;;;9.40;6.60;;;;;;;22.29;67.27;94412.94;5093365;28;20322;-80
2022/08/19 03:41:51;;;;;;;10.07;6.78;;;;;;;22.46;67.55;94431.38;5093577;28;20281;-80
2022/08/19 03:44:20;;;;;;;8.20;6.45;;;;;;;22.42;67.29;94432.84;5093197;28;20190;-81
2022/08/19 03:46:48;;;;;;;11.10;6.45;;;;;;;22.44;67.74;94455.03;5093490;28;20189;-82
2022/08/19 03:49:16;;;;;;;12.73;6.70;;;;;;;22.39;67.83;94449.69;5093248;28;20200;-81
2022/08/19 03:51:44;;;;;;;6.72;5.40;;;;;;;22.36;67.89;94455.31;5093191;28;20196;-82
2022/08/19 03:54:14;;;;;;;9.85;6.53;;;;;;;22.38;67.73;94462.94;5093723;28;20194;-82
2022/08/19 03:56:44;;;;;;;8.85;6.53;;;;;;;22.34;67.46;94461.78;5093022;28;20250;-79
2022/08/19 03:59:13;;;;;;;9.80;6.65;;;;;;;22.36;67.30;94463.16;5093153;28;20193;-82
2022/08/19 04:01:40;;;;;;;8.18;6.68;;;;;;;22.37;67.20;94466.56;5092941;28;20190;-82
2022/08/19 04:04:08;;;;;;;19.90;6.63;;;;;;;22.34;67.52;94462.56;5093002;28;20328;-82
2022/08/19 04:06:38;;;;;;;9.07;6.80;;;;;;;22.35;67.62;94465.97;5092753;28;20204;-80
2022/08/19 04:09:07;;;;;;;7.53;5.95;;;;;;;22.36;67.41;94468.34;5093196;28;20198;-81
2022/08/19 04:11:41;;;;;;;7.65;6.10;;;;;;;22.37;67.49;94462.16;5092739;28;20707;-83
2022/08/19 04:14:10;;;;;;;14.40;6.88;;;;;;;22.39;67.65;94467.94;5093398;28;20231;-83
2022/08/19 04:16:38;;;;;;;9.00;6.43;;;;;;;22.29;67.75;94447.59;5092804;28;20233;-82
2022/08/19 04:19:06;;;;;;;8.95;6.60;;;;;;;22.44;68.15;94468.06;5092862;28;20668;-81
2022/08/19 04:21:34;;;;;;;8.75;6.70;;;;;;;22.48;67.93;94474.44;5093184;28;20618;-81
2022/08/19 04:24:01;;;;;;;9.70;6.07;;;;;;;22.49;67.44;94468.22;5092765;28;20212;-81
2022/08/19 04:26:32;;;;;;;6.97;6.28;;;;;;;22.55;67.75;94484.81;5092934;28;20220;-83
2022/08/19 04:29:00;;;;;;;7.97;6.22;;;;;;;22.57;67.77;94479.38;5092826;28;20225;-81
2022/08/19 04:31:35;;;;;;;9.27;6.13;;;;;;;22.59;67.63;94474.75;5093116;28;20194;-83
2022/08/19 04:34:04;;;;;;;8.20;6.70;;;;;;;22.56;67.80;94470.75;5093013;28;20228;-83
2022/08/19 04:36:35;;;;;;;7.50;6.70;;;;;;;22.70;67.86;94479.22;5092749;28;20566;-83
2022/08/19 04:39:05;;;;;;;7.47;6.72;;;;;;;22.78;68.14;94471.91;5092791;28;20202;-82
2022/08/19 04:44:31;;;;;;;10.90;6.88;;;;;;;23.03;68.04;94476.28;5049257;28;20214;-81
2022/08/19 04:47:00;;;;;;;10.07;6.10;;;;;;;23.07;66.68;94448.72;5048891;28;20195;-83
2022/08/19 04:49:27;;;;;;;11.25;6.72;;;;;;;23.41;65.55;94475.19;5049715;28;20252;-83
2022/08/19 04:51:55;;;;;;;17.48;7.82;;;;;;;23.57;64.75;94474.50;5049562;28;20183;-83
2022/08/19 04:54:25;;;;;;;10.50;8.27;;;;;;;23.68;64.36;94471.19;5049586;28;20222;-79
2022/08/19 04:56:53;;;;;;;9.23;7.03;;;;;;;23.85;64.00;94473.94;5049248;28;20199;-82
2022/08/19 04:59:21;;;;;;;12.82;6.88;;;;;;;23.95;63.27;94470.75;5049780;28;20186;-83
2022/08/19 05:01:49;;;;;;;8.52;7.55;;;;;;;24.13;62.88;94478.50;5049156;28;20227;-83
2022/08/19 05:04:20;;;;;;;17.63;8.48;;;;;;;24.14;62.89;94461.81;5049419;28;20226;-81
2022/08/19 05:06:48;;;;;;;12.77;8.93;;;;;;;24.39;62.57;94482.50;5049274;28;20195;-82
2022/08/19 05:09:16;;;;;;;13.75;8.70;;;;;;;24.55;61.39;94488.06;5049682;28;20194;-83
2022/08/19 05:11:44;;;;;;;17.35;8.73;;;;;;;24.62;61.21;94486.91;5049288;28;20191;-83
2022/08/19 05:14:13;;;;;;;18.25;8.13;;;;;;;24.56;61.08;94472.13;5049277;28;20187;-83
2022/08/19 05:16:41;;;;;;;13.02;7.68;;;;;;;24.76;60.86;94490.06;5090885;28;20220;-82
2022/08/19 05:24:39;;;;;;;12.60;7.38;;;;;;;25.11;60.20;94487.41;5091558;28;20192;-81
2022/08/19 05:27:06;;;;;;;14.23;7.63;;;;;;;25.24;59.30;94487.13;5091424;28;20208;-82
2022/08/19 05:29:35;;;;;;;12.35;6.95;;;;;;;25.36;59.05;94481.84;5091364;28;20645;-83
2022/08/19 05:32:04;;;;;;;10.82;6.53;;;;;;;25.42;58.57;94473.03;5091216;28;20186;-82
2022/08/19 05:34:32;;;;;;;11.60;7.55;;;;;;;25.60;58.34;94487.75;5091484;28;20265;-80
2022/08/19 05:37:04;;;;;;;11.35;7.03;;;;;;;25.59;57.09;94488.00;5092542;28;20576;-83
2022/08/19 05:39:34;;;;;;;12.43;8.32;;;;;;;25.72;57.00;94485.06;5093006;28;20238;-80
2022/08/19 05:42:06;;;;;;;11.70;7.57;;;;;;;25.82;57.25;94476.59;5091176;28;20216;-82
2022/08/19 05:44:36;;;;;;;20.35;7.43;;;;;;;26.03;56.28;94486.38;5091384;28;20632;-81
2022/08/19 05:47:05;;;;;;;12.63;7.97;;;;;;;26.10;55.54;94471.28;5090908;28;20189;-82
2022/08/19 05:49:35;;;;;;;17.23;7.43;;;;;;;26.36;55.42;94487.41;5091567;28;20225;-82
2022/08/19 05:52:07;;;;;;;13.70;7.82;;;;;;;26.45;55.08;94492.00;5090951;28;20209;-80
2022/08/19 05:54:35;;;;;;;14.45;7.70;;;;;;;26.44;54.96;94466.81;5090947;28;20268;-82
2022/08/19 05:57:03;;;;;;;15.55;8.10;;;;;;;26.66;54.97;94487.03;5090602;28;20239;-82
2022/08/19 05:59:30;;;;;;;14.32;8.13;;;;;;;26.75;55.11;94496.88;5090994;28;20579;-81
2022/08/19 06:01:57;;;;;;;10.15;8.05;;;;;;;26.91;55.41;94494.44;5090790;28;20209;-82
2022/08/19 06:04:25;;;;;;;14.10;8.10;;;;;;;27.06;54.70;94501.69;5090904;28;20290;-82
2022/08/19 06:06:54;;;;;;;12.90;8.02;;;;;;;27.23;54.95;94486.69;5090847;28;20212;-83
2022/08/19 06:09:23;;;;;;;13.20;7.75;;;;;;;27.48;54.00;94488.78;5091318;28;20189;-81
2022/08/19 06:11:53;;;;;;;14.10;8.43;;;;;;;27.67;53.49;94492.66;5090886;28;20189;-81
2022/08/19 06:14:22;;;;;;;14.02;8.30;;;;;;;27.90;53.99;94494.22;5092232;28;20185;-82
2022/08/19 06:16:50;;;;;;;12.60;8.15;;;;;;;28.21;51.68;94497.06;5093021;28;20197;-83
2022/08/19 06:19:19;;;;;;;13.82;8.63;;;;;;;28.38;51.29;94502.22;5093314;28;20259;-82
2022/08/19 06:21:48;;;;;;;13.45;7.88;;;;;;;28.48;51.90;94497.00;5091985;28;20236;-83
2022/08/19 06:24:18;;;;;;;14.85;9.13;;;;;;;28.68;50.19;94498.97;5091345;28;20227;-84
2022/08/19 06:26:49;;;;;;;13.38;8.43;;;;;;;28.70;49.60;94495.03;5091016;28;20280;-84
2022/08/19 06:29:18;;;;;;;11.15;8.63;;;;;;;28.77;49.55;94497.44;5090280;28;20182;-83
2022/08/19 06:31:49;;;;;;;10.40;8.25;;;;;;;28.73;50.03;94505.03;5093364;28;20198;-82
2022/08/19 06:34:17;;;;;;;9.20;7.10;;;;;;;28.91;49.89;94503.81;5095215;28;20204;-82
2022/08/19 06:36:48;;;;;;;8.23;6.22;;;;;;;29.16;49.52;94497.09;5093813;28;20186;-83
2022/08/19 06:39:17;;;;;;;13.07;6.90;;;;;;;29.43;49.10;94495.06;5090325;28;20622;-82
2022/08/19 06:41:49;;;;;;;12.23;6.22;;;;;;;29.68;48.48;94504.09;5089815;28;20220;-82
2022/08/19 06:44:16;;;;;;;11.38;6.93;;;;;;;29.89;47.67;94497.78;5090372;28;20201;-82
2022/08/19 06:46:43;;;;;;;7.78;6.65;;;;;;;30.18;46.39;94498.09;5089510;28;20567;-81
2022/08/19 06:49:13;;;;;;;9.23;7.20;;;;;;;30.42;45.57;94503.59;5089857;28;20229;-82
2022/08/19 06:51:41;;;;;;;12.00;6.35;;;;;;;30.53;45.08;94482.44;5089921;28;20181;-82
2022/08/19 06:54:08;;;;;;;7.15;6.40;;;;;;;30.90;44.57;94506.66;5089787;28;20240;-82
2022/08/19 06:56:35;;;;;;;10.00;6.32;;;;;;;31.07;44.55;94510.84;5090266;28;20212;-83
2022/08/19 06:59:05;;;;;;;10.32;6.53;;;;;;;31.19;44.98;94511.31;5091714;28;20186;-85
2022/08/19 07:01:37;;;;;;;8.60;7.22;;;;;;;31.34;43.61;94508.63;5093778;28;20719;-80
2022/08/19 07:04:05;;;;;;;7.00;6.18;;;;;;;31.53;43.63;94510.66;5096033;28;20323;-83
2022/08/19 07:06:32;;;;;;;8.88;6.65;;;;;;;31.71;43.03;94516.09;5094150;28;20193;-81
2022/08/19 07:08:59;;;;;;;8.38;6.80;;;;;;;31.71;42.66;94500.22;5089523;28;20194;-83
2022/08/19 07:11:27;;;;;;;9.25;6.88;;;;;;;31.71;42.68;94486.22;5089856;28;20189;-82
2022/08/19 07:13:54;;;;;;;6.53;5.88;;;;;;;32.03;42.28;94508.75;5089358;28;20292;-82
2022/08/19 07:16:23;;;;;;;8.63;6.47;;;;;;;32.18;41.46;94517.38;5089550;28;20240;-80
2022/08/19 07:18:51;;;;;;;12.35;6.80;;;;;;;32.29;41.81;94504.03;5089394;28;20193;-84
2022/08/19 07:21:20;;;;;;;9.52;6.03;;;;;;;32.43;41.68;94515.59;5089612;28;20213;-81
2022/08/19 07:23:48;;;;;;;8.55;6.28;;;;;;;32.57;41.10;94513.88;5089357;28;20691;-82
2022/08/19 07:26:20;;;;;;;9.50;7.22;;;;;;;32.37;40.66;94480.41;5089589;28;20193;-82
2022/08/19 07:28:48;;;;;;;10.48;6.85;;;;;;;32.63;40.37;94509.31;5089192;28;20645;-82
2022/08/19 07:31:18;;;;;;;10.50;6.18;;;;;;;32.38;40.71;94481.22;5089482;28;20189;-83
2022/08/19 07:33:48;;;;;;;10.02;6.05;;;;;;;32.60;40.69;94512.50;5088974;28;20276;-82
2022/08/19 07:36:17;;;;;;;8.57;5.80;;;;;;;32.73;41.22;94509.22;5089066;28;20189;-83
2022/08/19 07:38:47;;;;;;;9.63;5.95;;;;;;;32.85;40.36;94503.50;5089268;28;20225;-83
2022/08/19 07:41:17;;;;;;;7.80;6.13;;;;;;;32.84;40.25;94505.38;5089161;28;20640;-82
2022/08/19 07:43:44;;;;;;;12.98;6.45;;;;;;;32.92;40.29;94506.63;5089016;28;20568;-81
2022/08/19 07:46:13;;;;;;;7.13;5.93;;;;;;;33.04;40.07;94503.59;5089238;28;20194;-79
2022/08/19 07:48:41;;;;;;;10.73;6.10;;;;;;;33.06;39.82;94506.75;5089017;28;20246;-80
2022/08/19 07:51:10;;;;;;;9.32;5.60;;;;;;;32.94;39.78;94501.84;5089198;28;20595;-79
2022/08/19 07:53:38;;;;;;;9.55;6.13;;;;;;;32.99;39.72;94509.75;5089278;28;20197;-83
2022/08/19 07:56:06;;;;;;;10.27;6.40;;;;;;;33.00;39.64;94510.53;5089493;28;20178;-81
2022/08/19 07:58:35;;;;;;;8.40;5.82;;;;;;;33.04;40.11;94508.91;5089241;28;20197;-81
2022/08/19 08:01:02;;;;;;;7.18;5.68;;;;;;;33.11;40.14;94506.69;5090016;28;20221;-80
2022/08/19 08:09:15;;;;;;;9.40;6.32;;;;;;;33.45;39.29;94507.31;5089272;28;20200;-82
2022/08/19 08:11:49;;;;;;;8.13;6.15;;;;;;;33.59;39.01;94506.59;5089246;28;20197;-82
2022/08/19 08:14:17;;;;;;;9.45;6.22;;;;;;;33.63;38.35;94487.19;5089829;28;20217;-80
2022/08/19 08:16:45;;;;;;;11.07;6.05;;;;;;;33.70;38.52;94505.41;5089043;28;20688;-80
2022/08/19 08:19:14;;;;;;;12.18;6.13;;;;;;;33.72;38.68;94487.31;5089328;28;20186;-81
2022/08/19 08:21:43;;;;;;;15.05;6.53;;;;;;;33.79;37.58;94492.28;5092995;28;20229;-83
2022/08/19 08:24:11;;;;;;;13.30;6.25;;;;;;;33.75;38.44;94493.91;5092558;28;20196;-82
2022/08/19 08:26:38;;;;;;;10.95;6.30;;;;;;;33.70;37.76;94494.78;5092911;28;20193;-80
2022/08/19 08:29:05;;;;;;;10.00;5.40;;;;;;;33.66;37.58;94489.25;5092979;28;20194;-83
2022/08/19 08:31:33;;;;;;;10.05;6.20;;;;;;;33.76;37.94;94488.31;5093197;28;20186;-81
2022/08/19 08:34:00;;;;;;;15.40;6.38;;;;;;;33.51;36.91;94489.50;5092705;28;20209;-82
2022/08/19 08:36:27;;;;;;;9.15;5.45;;;;;;;33.48;37.40;94484.75;5092614;28;20197;-82
2022/08/19 08:38:56;;;;;;;7.85;5.28;;;;;;;33.62;36.85;94490.91;5092335;28;20193;-82
2022/08/19 08:41:29;;;;;;;12.75;4.90;;;;;;;33.59;36.27;94488.81;5092341;28;20221;-82
2022/08/19 08:43:57;;;;;;;6.07;4.47;;;;;;;33.45;35.66;94482.66;5092670;28;20534;-81
2022/08/19 08:46:30;;;;;;;7.90;5.03;;;;;;;33.60;36.73;94479.03;5092530;28;20185;-82
2022/08/19 08:49:05;;;;;;;8.60;6.05;;;;;;;33.79;36.55;94484.31;5092020;28;20649;-83
2022/08/19 08:51:36;;;;;;;9.95;5.60;;;;;;;33.95;36.43;94483.00;5092086;28;20197;-83
2022/08/19 08:54:08;;;;;;;11.50;5.70;;;;;;;34.07;36.93;94478.06;5092563;28;20190;-82
2022/08/19 08:56:35;;;;;;;12.60;4.55;;;;;;;34.14;34.51;94477.69;5092594;28;20197;-82
2022/08/19 08:59:08;;;;;;;6.55;4.18;;;;;;;34.09;34.76;94477.75;5091791;28;20587;-82
2022/08/19 09:01:35;;;;;;;5.13;4.60;;;;;;;34.07;34.88;94475.41;5091933;28;20205;-81
2022/08/19 09:04:05;;;;;;;6.82;4.30;;;;;;;34.09;33.86;94475.88;5091797;28;20223;-81
2022/08/19 09:06:39;;;;;;;4.50;3.97;;;;;;;33.90;33.86;94475.13;5091971;28;20316;-82
2022/08/19 09:09:16;;;;;;;6.03;3.75;;;;;;;33.68;34.02;94465.91;5091431;28;20673;-81
2022/08/19 09:11:57;;;;;;;6.72;4.30;;;;;;;33.49;34.58;94466.97;5091592;28;20568;-81
2022/08/19 09:14:37;;;;;;;7.57;4.57;;;;;;;33.61;34.07;94470.78;5091678;28;20189;-82
2022/08/19 09:17:07;;;;;;;5.95;3.75;;;;;;;33.73;33.92;94462.38;5092191;28;20186;-84
2022/08/19 09:19:35;;;;;;;22.17;4.60;;;;;;;33.43;34.40;94460.94;5092059;28;20348;-81
2022/08/19 09:22:02;;;;;;;5.65;4.28;;;;;;;33.36;33.97;94460.50;5091670;28;20206;-82
2022/08/19 09:24:30;;;;;;;5.78;3.50;;;;;;;33.27;34.06;94454.25;5091734;28;20195;-82
2022/08/19 09:26:57;;;;;;;3.90;3.58;;;;;;;33.36;34.41;94450.69;5091719;28;20675;-81
2022/08/19 09:29:24;;;;;;;6.07;3.97;;;;;;;33.45;34.17;94454.28;5090779;28;20178;-79
2022/08/19 09:31:51;;;;;;;4.50;3.78;;;;;;;33.61;33.49;94452.22;5090442;28;20185;-81
2022/08/19 09:34:19;;;;;;;5.47;3.92;;;;;;;33.79;33.25;94450.59;5091285;28;20181;-80
2022/08/19 09:36:46;;;;;;;4.78;3.53;;;;;;;33.76;32.95;94419.34;5091100;28;20357;-79
2022/08/19 09:39:13;;;;;;;3.72;3.40;;;;;;;34.01;32.82;94449.22;5090908;28;20256;-81
2022/08/19 09:41:41;;;;;;;4.97;3.33;;;;;;;34.04;31.64;94446.78;5090826;28;20232;-81
2022/08/19 09:44:08;;;;;;;4.30;3.70;;;;;;;33.92;31.83;94436.59;5090796;28;20297;-81
2022/08/19 09:46:35;;;;;;;6.15;3.55;;;;;;;33.99;32.45;94444.22;5091110;28;20196;-82
2022/08/19 09:49:03;;;;;;;5.60;3.35;;;;;;;33.91;32.72;94426.28;5090991;28;20190;-81
2022/08/19 09:51:31;;;;;;;7.82;3.83;;;;;;;33.94;31.86;94447.72;5090894;28;20193;-80
2022/08/19 09:54:02;;;;;;;4.47;3.80;;;;;;;33.88;32.07;94440.13;5100895;28;20197;-80
2022/08/19 09:56:29;;;;;;;10.93;3.95;;;;;;;33.94;32.21;94436.31;5103940;28;20182;-81
2022/08/19 09:58:59;;;;;;;4.10;3.53;;;;;;;33.62;32.17;94431.78;5096730;28;20284;-80
2022/08/19 10:01:27;;;;;;;3.70;3.40;;;;;;;33.68;31.81;94430.63;5090862;28;20218;-79
2022/08/19 10:03:57;;;;;;;7.88;3.65;;;;;;;33.82;31.09;94430.69;5090582;28;20241;-81
2022/08/19 10:06:26;;;;;;;7.55;3.80;;;;;;;33.85;31.17;94428.25;5090508;28;20178;-81
2022/08/19 10:08:53;;;;;;;4.88;3.30;;;;;;;33.55;31.34;94391.56;5090658;28;20657;-84
2022/08/19 10:11:21;;;;;;;3.58;3.28;;;;;;;33.72;31.64;94413.03;5090364;28;20212;-80
2022/08/19 10:13:49;;;;;;;3.45;3.15;;;;;;;33.71;31.52;94406.16;5090693;28;20233;-83
2022/08/19 10:16:19;;;;;;;3.33;3.00;;;;;;;33.47;31.49;94384.28;5090245;28;20193;-81
2022/08/19 10:18:46;;;;;;;3.75;3.45;;;;;;;33.77;31.32;94417.50;5090371;28;20609;-82
2022/08/19 10:21:16;;;;;;;6.70;3.72;;;;;;;33.77;31.87;94414.84;5090055;28;20193;-81
2022/08/19 10:23:45;;;;;;;4.78;3.65;;;;;;;33.85;32.01;94416.81;5090116;28;20189;-82
2022/08/19 10:26:14;;;;;;;4.82;3.75;;;;;;;33.78;31.20;94413.75;5089930;28;20186;-82
2022/08/19 10:28:42;;;;;;;5.32;3.58;;;;;;;33.84;31.54;94410.72;5090564;28;20200;-81
2022/08/19 10:31:10;;;;;;;4.30;3.40;;;;;;;33.90;31.41;94404.25;5089923;28;20544;-80
2022/08/19 10:33:39;;;;;;;4.32;3.42;;;;;;;33.94;31.56;94394.66;5089980;28;20193;-81
2022/08/19 10:36:10;;;;;;;6.82;3.95;;;;;;;34.04;31.32;94396.34;5090193;28;20190;-82
2022/08/19 10:38:37;;;;;;;3.70;3.40;;;;;;;34.17;31.29;94402.78;5090376;28;20217;-83
2022/08/19 10:41:09;;;;;;;8.10;3.47;;;;;;;34.24;30.95;94397.84;5089495;28;20182;-82
2022/08/19 10:43:38;;;;;;;9.43;4.20;;;;;;;34.23;31.42;94398.16;5089092;28;20221;-81
2022/08/19 10:46:05;;;;;;;7.07;4.28;;;;;;;34.13;31.63;94399.91;5089879;28;20567;-80
2022/08/19 10:48:33;;;;;;;7.43;4.80;;;;;;;34.10;31.76;94389.09;5089765;28;20189;-80
2022/08/19 10:53:46;;;;;;;5.70;4.50;;;;;;;34.13;31.58;94394.59;5089588;28;20204;-81
2022/08/19 10:58:58;;;;;;;6.45;4.20;;;;;;;34.02;31.65;94389.75;5089815;28;20212;-82
2022/08/19 11:01:25;;;;;;;9.20;4.40;;;;;;;33.98;31.84;94394.06;5089185;28;20211;-82
2022/08/19 11:03:52;;;;;;;4.78;3.78;;;;;;;33.70;31.87;94341.72;5089085;28;20222;-80
2022/08/19 11:06:21;;;;;;;4.30;3.88;;;;;;;34.08;32.07;94394.69;5089146;28;20240;-79
2022/08/19 11:08:48;;;;;;;5.30;3.35;;;;;;;34.13;31.75;94391.94;5089540;28;20190;-81
2022/08/19 11:11:15;;;;;;;4.65;4.13;;;;;;;34.13;31.67;94394.59;5089153;28;20648;-82
2022/08/19 11:13:43;;;;;;;7.22;4.18;;;;;;;34.17;31.92;94387.63;5089515;28;20189;-80
2022/08/19 11:16:14;;;;;;;6.63;4.10;;;;;;;34.16;31.54;94388.72;5089305;28;20367;-81
2022/08/19 11:18:47;;;;;;;4.30;3.90;;;;;;;34.21;31.71;94379.88;5089166;28;20189;-80
2022/08/19 11:21:18;;;;;;;4.78;3.88;;;;;;;34.24;31.41;94389.09;5089066;28;20942;-82
2022/08/19 11:23:49;;;;;;;4.30;3.80;;;;;;;34.28;31.48;94382.13;5088969;28;20229;-80
2022/08/19 11:26:16;;;;;;;4.47;4.07;;;;;;;34.11;31.42;94349.00;5089114;28;20186;-81
2022/08/19 11:28:43;;;;;;;5.10;4.55;;;;;;;34.34;31.13;94378.31;5089117;28;20189;-81
2022/08/19 11:31:16;;;;;;;8.32;4.40;;;;;;;34.09;30.74;94337.88;5089130;28;20296;-80
2022/08/19 11:33:43;;;;;;;7.32;4.30;;;;;;;34.34;31.34;94379.09;5089245;28;20272;-80
2022/08/19 11:36:11;;;;;;;6.03;3.85;;;;;;;34.22;30.90;94372.69;5088701;28;20678;-82
2022/08/19 11:38:38;;;;;;;4.88;4.05;;;;;;;34.17;31.39;94371.69;5089039;28;20242;-81
2022/08/19 11:41:08;;;;;;;6.80;4.13;;;;;;;34.11;31.27;94364.91;5089383;28;20193;-81
2022/08/19 11:43:35;;;;;;;4.75;4.15;;;;;;;34.02;31.60;94363.22;5089290;28;20229;-80
2022/08/19 11:46:07;;;;;;;6.28;4.50;;;;;;;34.05;31.65;94360.78;5089024;28;20223;-82
2022/08/19 11:48:34;;;;;;;6.28;4.05;;;;;;;34.05;31.90;94352.81;5089096;28;20553;-83
2022/08/19 11:51:06;;;;;;;4.53;4.13;;;;;;;34.11;31.81;94356.97;5088939;28;20204;-81
2022/08/19 11:53:34;;;;;;;4.78;4.22;;;;;;;34.14;31.76;94358.22;5088836;28;20225;-81
2022/08/19 11:56:01;;;;;;;4.78;4.32;;;;;;;34.12;31.82;94355.09;5092094;28;20201;-81
2022/08/19 11:58:30;;;;;;;4.43;4.03;;;;;;;34.03;31.85;94348.88;5092978;28;20204;-79
2022/08/19 12:00:57;;;;;;;4.40;4.00;;;;;;;33.87;32.14;94346.47;5093126;28;20564;-79